Terminal Aerodrome Forecast
Issued by NWS

Home | Current Version | Previous Version | Text Only | Print | Product List | Glossary On
Versions: 1 2 3 4 5 6 7 8 9 10 11 12 13
092
FTUS45 KABQ 250530
TAFLVS
TAF
KLVS 250530Z 2506/2606 02007KT P6SM SCT100
     FM251930 17012KT P6SM VCSH SCT100 BKN140
     FM252200 17015KT P6SM VCTS BKN070CB OVC120
     FM260100 07010KT P6SM VCSH BKN090 OVC140
     FM260400 VRB05KT P6SM SCT140=

USA.gov is the U.S. government's official web portal to all federal, state and local government web resources and services.